岡山グライダークラブ活動状況掲示板あなたは無料カウンター人目の訪問者です

岡山グライダークラブ
岡山市浦安南町639-1 岡南飛行場
 使用機:シャイベ式 SF25C型 ファルケ   JA2330
      ヴァレンティン式17E型 タイフーン  JA2342
 練習日:毎日曜日  クラブルーム:電話 086-265-1810
この掲示板は岡山グライダークラブの活動状況をお知らせする掲示板です。
!!!この掲示板は投稿規制をしています。!!!
クラブ関連各種情報は 岡山グライダークラブクラブルーム      を       .
  ブリーフイング情報は  岡山グライダークラブブリーフィングルーム  をご覧下さい。 .
※写真はクリックすると拡大して見ることが出来ます。
岡南飛行場へのアクセス等は 岡南飛行場管理事務所 をご覧ください。
クラブの ホームページ ができました。

 
09月27日
by OGC at 2020/9/27(日) 20:17:06 No.20200927201416  削除コメント
1024 x 768 x 82,697バイト
No.1

09月27日
本日の参加者
  会員      17名
  その他      0名


@本日の様子






METAR
RJBK 270000Z 32005KT 270V010 40KM FEW025CU BKN070AC 23/16 Q1013 A2992
RJOB 270000Z VRB06KT 9999 FEW020 BKN080 20/15 Q1014
RJOT 270000Z 25005KT 220V290 9999 FEW010 SCT040 BKN050 22/18 Q1014
RJOA 270000Z 35010KT 320V040 9999 FEW020 SCT060 20/13 Q1015
TAF
RJOB 262307Z 2700/2806 36008KT 9999 FEW030 SCT040
RJOT 262309Z 2700/2806 29006KT 9999 FEW025 SCT040 BKN050
     BECMG 2700/2702 35008KT
     BECMG 2708/2710 19006KT
     BECMG 2800/2803 03006KT
RJOA 262306Z 2700/2806 02008KT 9999 FEW020 SCT045
     BECMG 2704/2706 34010KT
     BECMG 2721/2800 03008KT

本日は癖の悪い横風。みんな、離着陸で苦戦していました。
みんな、サーマルやリッジ狙いで、飛びまわっていました。

解散    17:50

1番機  10:15離陸 撤収機  17:30着陸 

SF25C JA2330 ファルケ     11Flt.4h15hmin  
17E   JA2342 タイフーン    04Flt.2h20min  
合計                    15Flt.6h35min

    << 戻る || ホームページ || 最新の掲示板へ